Aérodrome :
LOGIN :

S'inscrire | Disclaimer

   EN    FR    IT 

 










Légende :    VFR   VFR Marginal   IFR   IFR Intensif   IFR Très Intensif
Visi : 
Plafond : 
>= 8 km
>= 3000ft
5 à 8 km
1000 à 3000 ft
1500m à 5 km
500 à 1000 ft
800 à 1500m
200 à 500 ft
< 800m
< 200 ft
Symboles :   Orages  Brouillard  Fortes neiges  Fortes précipitations  Vent > 20 kt
SIGMETs :   Divers  Orages  Givrage  Turbulence  Onde Orograph.  Cendres Volcan.







- Altitude de l'aérodrome : 2096 ft
- Code IATA : AUR
- Voir les cartes d'approche


LFLW - Aurillac

DERNIER METAR :
  • 180600Z AUTO 07002KT 6000 NSC M03/M03 Q1022 TEMPO 4000 BR

METARs EXPIRÉS :
  • 180530Z AUTO 05002KT CAVOK M02/M02 Q1021 TEMPO 4000 BR
  • 180500Z AUTO 10002KT 8000 NSC M02/M02 Q1022
  • 180430Z AUTO VRB01KT 6000 R15/1100U NSC M02/M02 Q1022
  • 180400Z AUTO 00000KT 7000 R15/1200U NSC M02/M03 Q1022
  • 180330Z AUTO 30002KT 8000 NSC M01/M02 Q1021

TAF TAF LFLW
Valide du 18 à 06h jusqu'au 18 à 15h UTC


180500Z 1806/1815 VRB02KT 8000 NSC
PROB30
TEMPO 1806/1808 4000 BR
BECMG 1808/1810 CAVOK
Pas de NOTAMs connus pour ce terrain.



MET'MAP, la Météo Aéronautique d'un coup d'oeil ! - Copyright ORBIFLY Décembre 2007 - Disclaimer

ORBIFLY MET'MAP TEAM :

Programmation & Développement : Alexandra Zaïnal
Conception & Développement : Baudouin d'Aumeries
Co-Programmation & Développement : Marc-Olivier Méhu
Soutien technique & logistique : Manuel Goepfert

Contact : metmap@orbifly.com




SOURCES & CREDITS :

   NOAA